createdAt,value
2023-05-10T00:01:14.337Z,9.98
2023-05-10T00:03:41.448Z,9.86
2023-05-10T00:06:08.091Z,9.76
2023-05-10T00:08:34.632Z,9.82
2023-05-10T00:11:01.274Z,9.80
2023-05-10T00:13:27.781Z,9.71
2023-05-10T00:15:54.291Z,9.58
2023-05-10T00:18:20.780Z,9.56
2023-05-10T00:20:47.454Z,9.54
2023-05-10T00:23:13.901Z,9.63
2023-05-10T00:25:40.400Z,9.88
2023-05-10T00:28:06.999Z,9.93
2023-05-10T00:30:33.537Z,9.76
2023-05-10T00:33:01.894Z,9.74
2023-05-10T00:35:28.410Z,9.57
2023-05-10T00:37:54.896Z,9.54
2023-05-10T00:40:21.799Z,9.30
2023-05-10T00:42:53.321Z,9.13
2023-05-10T00:45:20.248Z,9.14
2023-05-10T00:47:46.968Z,9.06
2023-05-10T00:50:14.101Z,8.84
2023-05-10T00:52:40.946Z,8.99
2023-05-10T00:55:07.769Z,8.87
2023-05-10T00:57:34.277Z,9.03
2023-05-10T01:00:00.819Z,8.97
2023-05-10T01:02:28.287Z,9.04
2023-05-10T01:04:57.105Z,8.82
2023-05-10T01:07:24.319Z,8.99
2023-05-10T01:09:50.802Z,9.03
2023-05-10T01:12:17.373Z,9.02
2023-05-10T01:14:44.086Z,8.89
2023-05-10T01:17:12.121Z,8.92
2023-05-10T01:19:39.112Z,8.96
2023-05-10T01:22:05.679Z,8.63
2023-05-10T01:24:51.234Z,8.76
2023-05-10T01:27:30.103Z,8.83
2023-05-10T01:30:13.665Z,8.80
2023-05-10T01:32:47.394Z,8.53
2023-05-10T01:35:24.010Z,8.53
2023-05-10T01:37:50.624Z,8.54
2023-05-10T01:40:20.616Z,8.59
2023-05-10T01:42:52.606Z,8.50
2023-05-10T01:45:29.889Z,8.30
2023-05-10T01:48:03.620Z,8.44
2023-05-10T01:50:30.990Z,8.39
2023-05-10T01:53:00.040Z,8.48
2023-05-10T01:55:29.500Z,8.51
2023-05-10T01:58:08.996Z,8.48
2023-05-10T02:00:36.514Z,8.48
2023-05-10T02:03:06.529Z,8.46
2023-05-10T02:05:34.199Z,8.41
2023-05-10T02:08:02.528Z,8.35
2023-05-10T02:10:29.954Z,8.01
2023-05-10T02:12:59.485Z,7.91
2023-05-10T02:15:27.438Z,8.13
2023-05-10T02:17:55.673Z,8.22
2023-05-10T02:20:23.348Z,7.98
2023-05-10T02:22:51.661Z,7.90
2023-05-10T02:25:19.173Z,8.05
2023-05-10T02:27:47.475Z,8.00
2023-05-10T02:30:14.564Z,8.11
2023-05-10T02:32:41.924Z,8.09
2023-05-10T02:35:09.332Z,8.11
2023-05-10T02:37:36.704Z,8.11
2023-05-10T02:40:05.742Z,8.14
2023-05-10T02:42:33.728Z,8.21
2023-05-10T02:45:06.289Z,8.10
2023-05-10T02:47:32.945Z,8.12
2023-05-10T02:49:59.824Z,7.98
2023-05-10T02:52:28.396Z,8.06
2023-05-10T02:55:01.754Z,8.09
2023-05-10T02:57:33.497Z,8.04
2023-05-10T03:00:01.163Z,8.02
2023-05-10T03:02:27.960Z,7.96
2023-05-10T03:04:54.568Z,8.02
2023-05-10T03:07:22.342Z,8.01
2023-05-10T03:09:49.997Z,8.00
2023-05-10T03:12:25.411Z,7.91
2023-05-10T03:15:00.713Z,7.87
2023-05-10T03:17:34.814Z,7.90
2023-05-10T03:20:05.253Z,7.90
2023-05-10T03:22:33.359Z,7.94
2023-05-10T03:25:02.560Z,7.71
2023-05-10T03:27:30.934Z,7.46
2023-05-10T03:29:57.920Z,7.42
2023-05-10T03:32:24.818Z,7.59
2023-05-10T03:34:51.403Z,7.65
2023-05-10T03:37:17.861Z,7.75
2023-05-10T03:39:44.362Z,7.78
2023-05-10T03:42:12.847Z,7.67
2023-05-10T03:44:42.604Z,7.86
2023-05-10T03:47:09.222Z,7.97
2023-05-10T03:49:35.878Z,7.89
2023-05-10T03:52:02.878Z,7.86
2023-05-10T03:54:29.381Z,7.90
2023-05-10T03:56:55.886Z,7.99
2023-05-10T03:59:22.755Z,7.92
2023-05-10T04:01:49.266Z,8.03
2023-05-10T04:04:15.780Z,7.87
2023-05-10T04:06:42.391Z,7.94
2023-05-10T04:09:09.318Z,8.03
2023-05-10T04:11:35.840Z,8.04
2023-05-10T04:14:02.343Z,8.02
2023-05-10T04:16:28.968Z,8.01
2023-05-10T04:18:55.486Z,8.19
2023-05-10T04:21:22.165Z,8.37
2023-05-10T04:23:48.637Z,8.46
2023-05-10T04:26:15.139Z,8.62
2023-05-10T04:28:41.684Z,8.73
2023-05-10T04:31:09.084Z,8.91
2023-05-10T04:33:36.367Z,9.04
2023-05-10T04:36:03.452Z,9.01
2023-05-10T04:38:30.280Z,9.12
2023-05-10T04:41:04.637Z,9.24
2023-05-10T04:43:31.105Z,9.20
2023-05-10T04:45:57.954Z,9.29
2023-05-10T04:48:24.523Z,9.35
2023-05-10T04:50:50.962Z,9.41
2023-05-10T04:53:17.584Z,9.52
2023-05-10T04:55:44.062Z,9.59
2023-05-10T04:58:10.533Z,9.78
2023-05-10T05:00:37.198Z,9.79
2023-05-10T05:03:03.864Z,9.91
2023-05-10T05:05:30.356Z,9.94
2023-05-10T05:07:57.262Z,10.11
2023-05-10T05:10:23.799Z,10.25
2023-05-10T05:12:50.554Z,10.93
2023-05-10T05:15:17.637Z,10.78
2023-05-10T05:17:44.472Z,10.86
2023-05-10T05:20:11.197Z,10.87
2023-05-10T05:22:38.201Z,10.96
2023-05-10T05:25:05.235Z,11.16
2023-05-10T05:27:32.324Z,11.14
2023-05-10T05:29:59.189Z,10.94
2023-05-10T05:32:26.098Z,10.80
2023-05-10T05:34:52.685Z,10.88
2023-05-10T05:37:20.216Z,11.10
2023-05-10T05:39:46.835Z,11.83
2023-05-10T05:42:14.091Z,11.73
2023-05-10T05:44:40.714Z,11.91
2023-05-10T05:47:07.436Z,11.99
2023-05-10T05:49:34.360Z,12.04
2023-05-10T05:52:01.698Z,11.94
2023-05-10T05:54:28.561Z,11.96
2023-05-10T05:56:56.295Z,12.17
2023-05-10T05:59:22.805Z,11.94
2023-05-10T06:01:49.936Z,11.61
2023-05-10T06:04:17.122Z,12.26
2023-05-10T06:06:43.828Z,12.13
2023-05-10T06:09:10.737Z,12.21
2023-05-10T06:11:37.381Z,12.81
2023-05-10T06:14:05.476Z,12.30
2023-05-10T06:16:32.188Z,12.70
2023-05-10T06:18:58.633Z,12.58
2023-05-10T06:21:25.204Z,12.73
2023-05-10T06:23:51.628Z,13.46
2023-05-10T06:26:18.066Z,12.94
2023-05-10T06:28:44.540Z,13.12
2023-05-10T06:31:12.847Z,13.35
2023-05-10T06:33:39.341Z,13.49
2023-05-10T06:36:06.007Z,13.81
2023-05-10T06:38:32.481Z,13.53
2023-05-10T06:40:58.969Z,13.85
2023-05-10T06:43:27.183Z,13.24
2023-05-10T06:45:53.690Z,13.35
2023-05-10T06:48:20.214Z,13.98
2023-05-10T06:50:46.673Z,15.02
2023-05-10T06:53:13.136Z,14.79
2023-05-10T06:55:39.871Z,14.45
2023-05-10T06:58:07.129Z,14.59
2023-05-10T07:00:33.752Z,14.04
2023-05-10T07:03:00.326Z,13.97
2023-05-10T07:05:28.853Z,14.76
2023-05-10T07:07:55.571Z,14.56
2023-05-10T07:10:22.103Z,14.10
2023-05-10T07:12:48.774Z,13.97
2023-05-10T07:15:17.091Z,14.34
2023-05-10T07:17:45.798Z,15.02
2023-05-10T07:20:12.911Z,15.58
2023-05-10T07:22:39.463Z,15.10
2023-05-10T07:25:06.345Z,14.89
2023-05-10T07:27:33.513Z,15.17
2023-05-10T07:29:59.982Z,15.43
2023-05-10T07:32:26.656Z,15.82
2023-05-10T07:34:53.306Z,15.20
2023-05-10T07:37:19.731Z,15.36
2023-05-10T07:39:46.262Z,15.25
2023-05-10T07:42:12.690Z,15.50
2023-05-10T07:44:39.165Z,15.68
2023-05-10T07:47:05.688Z,15.40
2023-05-10T07:49:32.229Z,15.09
2023-05-10T07:51:58.807Z,15.38
2023-05-10T07:54:25.326Z,15.48
2023-05-10T07:56:51.929Z,15.44
2023-05-10T07:59:18.680Z,15.20
2023-05-10T08:01:45.466Z,15.63
2023-05-10T08:04:12.663Z,15.67
2023-05-10T08:06:39.309Z,16.03
2023-05-10T08:09:05.797Z,14.78
2023-05-10T08:11:34.308Z,15.29
2023-05-10T08:14:01.506Z,15.54
2023-05-10T08:16:28.517Z,15.78
2023-05-10T08:18:56.398Z,16.13
2023-05-10T08:21:23.142Z,16.08
2023-05-10T08:23:50.105Z,16.04
2023-05-10T08:26:16.632Z,16.13
2023-05-10T08:28:43.192Z,16.74
2023-05-10T08:31:09.702Z,16.56
2023-05-10T08:33:36.276Z,16.60
2023-05-10T08:36:03.001Z,16.79
2023-05-10T08:38:29.466Z,17.08
2023-05-10T08:40:59.734Z,16.67
2023-05-10T08:43:32.682Z,16.18
2023-05-10T08:46:01.549Z,16.27
2023-05-10T08:48:29.910Z,16.88
2023-05-10T08:50:58.977Z,16.50
2023-05-10T08:53:27.526Z,16.25
2023-05-10T08:55:54.395Z,16.56
2023-05-10T08:58:21.354Z,16.53
2023-05-10T09:00:52.109Z,16.85
2023-05-10T09:03:18.794Z,17.86
2023-05-10T09:05:45.823Z,17.61
2023-05-10T09:08:12.978Z,16.48
2023-05-10T09:10:40.524Z,17.56
2023-05-10T09:13:08.104Z,17.84
2023-05-10T09:15:34.566Z,17.62
2023-05-10T09:18:03.323Z,17.95
2023-05-10T09:20:31.772Z,18.06
2023-05-10T09:23:00.182Z,17.60
2023-05-10T09:25:27.110Z,17.73
2023-05-10T09:27:53.606Z,17.41
2023-05-10T09:30:30.212Z,17.79
2023-05-10T09:32:57.868Z,18.29
2023-05-10T09:35:28.016Z,18.69
2023-05-10T09:37:56.939Z,18.80
2023-05-10T09:40:24.844Z,18.79
2023-05-10T09:43:01.803Z,18.46
2023-05-10T09:45:29.033Z,19.35
2023-05-10T09:47:56.371Z,18.54
2023-05-10T09:50:23.203Z,18.73
2023-05-10T09:52:54.448Z,18.53
2023-05-10T09:55:22.738Z,19.10
2023-05-10T09:57:49.985Z,19.28
2023-05-10T10:00:20.199Z,19.38
2023-05-10T10:02:55.245Z,19.10
2023-05-10T10:07:50.260Z,18.49
2023-05-10T10:10:16.927Z,18.31
2023-05-10T10:12:43.720Z,18.52
2023-05-10T10:15:10.912Z,17.86
2023-05-10T10:17:39.188Z,18.78
2023-05-10T10:20:06.080Z,19.04
2023-05-10T10:22:32.555Z,18.68
2023-05-10T10:25:00.210Z,18.95
2023-05-10T10:27:36.022Z,18.83
2023-05-10T10:30:09.078Z,19.53
2023-05-10T10:32:44.886Z,20.40
2023-05-10T10:35:11.546Z,20.54
2023-05-10T10:37:45.559Z,20.10
2023-05-10T10:40:26.325Z,20.28
2023-05-10T10:42:52.937Z,20.49
2023-05-10T10:45:19.697Z,19.74
2023-05-10T10:47:46.293Z,19.65
2023-05-10T10:50:17.254Z,20.07
2023-05-10T10:52:44.804Z,20.62
2023-05-10T10:55:15.634Z,20.01
2023-05-10T10:57:42.421Z,20.47
2023-05-10T11:00:27.975Z,20.55
2023-05-10T11:02:58.929Z,20.73
2023-05-10T11:05:28.557Z,20.37
2023-05-10T11:07:55.863Z,19.45
2023-05-10T11:10:22.764Z,19.66
2023-05-10T11:13:02.221Z,19.71
2023-05-10T11:15:35.974Z,19.22
2023-05-10T11:18:17.725Z,20.12
2023-05-10T11:20:44.346Z,20.34
2023-05-10T11:23:16.463Z,20.03
2023-05-10T11:25:44.398Z,20.53
2023-05-10T11:28:11.335Z,21.13
2023-05-10T11:30:39.482Z,20.98
2023-05-10T11:33:06.167Z,21.58
2023-05-10T11:35:37.642Z,21.56
2023-05-10T11:38:06.356Z,22.06
2023-05-10T11:40:32.842Z,21.29
2023-05-10T11:42:59.708Z,20.58
2023-05-10T11:45:26.724Z,20.78
2023-05-10T11:47:53.229Z,21.35
2023-05-10T11:50:19.898Z,22.00
2023-05-10T11:52:46.441Z,22.31
2023-05-10T11:55:13.174Z,21.02
2023-05-10T11:57:40.366Z,19.66
2023-05-10T12:00:07.154Z,19.88
2023-05-10T12:02:34.452Z,19.50
2023-05-10T12:05:01.555Z,19.37
2023-05-10T12:07:28.230Z,19.28
2023-05-10T12:10:08.331Z,19.33
2023-05-10T12:12:45.100Z,18.91
2023-05-10T12:15:19.693Z,18.47
2023-05-10T12:17:46.814Z,18.10
2023-05-10T12:20:19.571Z,18.48
2023-05-10T12:22:57.815Z,18.58
2023-05-10T12:25:30.764Z,19.26
2023-05-10T12:27:58.674Z,19.44
2023-05-10T12:30:29.451Z,19.58
2023-05-10T12:33:00.867Z,19.98
2023-05-10T12:35:27.408Z,19.47
2023-05-10T12:37:54.038Z,19.42
2023-05-10T12:40:21.194Z,18.71
2023-05-10T12:42:47.760Z,18.71
2023-05-10T12:45:14.350Z,17.93
2023-05-10T12:47:43.780Z,17.50
2023-05-10T12:50:11.299Z,17.74
2023-05-10T12:52:38.159Z,17.66
2023-05-10T12:55:04.853Z,17.57
2023-05-10T12:57:31.680Z,17.81
2023-05-10T12:59:58.136Z,17.74
2023-05-10T13:02:24.766Z,18.16
2023-05-10T13:04:51.468Z,18.28
2023-05-10T13:07:18.035Z,17.99
2023-05-10T13:09:44.663Z,18.09
2023-05-10T13:12:11.158Z,18.35
2023-05-10T13:14:37.760Z,18.51
2023-05-10T13:17:04.285Z,18.50
2023-05-10T13:19:30.829Z,19.07
2023-05-10T13:21:57.364Z,18.75
2023-05-10T13:24:23.837Z,18.22
2023-05-10T13:26:50.475Z,18.11
2023-05-10T13:29:18.932Z,18.32
2023-05-10T13:31:45.634Z,17.51
2023-05-10T13:34:12.249Z,17.38
2023-05-10T13:36:39.119Z,17.92
2023-05-10T13:39:06.374Z,18.40
2023-05-10T13:41:33.075Z,18.33
2023-05-10T13:43:59.506Z,18.13
2023-05-10T13:46:26.074Z,18.06
2023-05-10T13:48:52.605Z,18.35
2023-05-10T13:51:19.144Z,18.63
2023-05-10T13:53:45.865Z,17.87
2023-05-10T13:56:12.404Z,18.13
2023-05-10T13:58:38.976Z,18.72
2023-05-10T14:01:05.926Z,18.88
2023-05-10T14:03:33.642Z,18.85
2023-05-10T14:06:00.311Z,18.93
2023-05-10T14:08:28.019Z,19.22
2023-05-10T14:10:54.491Z,19.06
2023-05-10T14:13:21.043Z,19.43
2023-05-10T14:15:47.550Z,19.45
2023-05-10T14:18:14.055Z,19.35
2023-05-10T14:20:40.882Z,19.26
2023-05-10T14:23:08.360Z,19.38
2023-05-10T14:25:35.870Z,19.12
2023-05-10T14:28:02.414Z,18.92
2023-05-10T14:30:28.954Z,18.76
2023-05-10T14:32:55.473Z,18.39
2023-05-10T14:35:22.440Z,18.42
2023-05-10T14:37:49.014Z,18.68
2023-05-10T14:40:16.282Z,18.92
2023-05-10T14:42:43.216Z,18.36
2023-05-10T14:45:10.721Z,18.85
2023-05-10T14:47:37.309Z,19.15
2023-05-10T14:50:03.902Z,19.47
2023-05-10T14:52:31.770Z,19.28
2023-05-10T14:55:01.307Z,19.00
2023-05-10T14:57:30.503Z,18.51
2023-05-10T14:59:57.576Z,18.12
2023-05-10T15:02:24.505Z,18.34
2023-05-10T15:04:51.849Z,18.44
2023-05-10T15:07:19.334Z,19.86
2023-05-10T15:09:46.088Z,18.57
2023-05-10T15:12:12.622Z,18.61
2023-05-10T15:14:39.089Z,18.54
2023-05-10T15:17:07.241Z,18.71
2023-05-10T15:19:34.313Z,18.58
2023-05-10T15:22:00.871Z,18.75
2023-05-10T15:24:27.392Z,19.11
2023-05-10T15:26:53.958Z,18.84
2023-05-10T15:29:23.508Z,18.94
2023-05-10T15:31:51.133Z,19.36
2023-05-10T15:34:18.290Z,19.02
2023-05-10T15:36:45.137Z,19.06
2023-05-10T15:39:11.936Z,19.68
2023-05-10T15:41:38.396Z,20.15
2023-05-10T15:44:04.986Z,19.84
2023-05-10T15:46:31.634Z,20.58
2023-05-10T15:48:59.216Z,20.76
2023-05-10T15:51:26.147Z,20.59
2023-05-10T15:54:05.731Z,19.20
2023-05-10T15:56:34.290Z,19.10
2023-05-10T15:59:00.758Z,19.22
2023-05-10T16:01:27.476Z,19.51
2023-05-10T16:03:53.974Z,19.37
2023-05-10T16:06:20.447Z,18.82
2023-05-10T16:08:46.919Z,18.58
2023-05-10T16:11:13.378Z,18.85
2023-05-10T16:13:39.878Z,18.72
2023-05-10T16:16:08.976Z,18.81
2023-05-10T16:18:36.090Z,18.78
2023-05-10T16:21:02.677Z,18.69
2023-05-10T16:23:29.289Z,18.70
2023-05-10T16:25:55.768Z,18.55
2023-05-10T16:28:22.251Z,18.51
2023-05-10T16:30:48.966Z,18.54
2023-05-10T16:33:16.763Z,18.65
2023-05-10T16:35:43.659Z,18.44
2023-05-10T16:38:10.170Z,18.33
2023-05-10T16:40:36.656Z,18.52
2023-05-10T16:43:03.572Z,18.40
2023-05-10T16:45:31.963Z,18.36
2023-05-10T16:47:58.495Z,18.44
2023-05-10T16:50:25.013Z,18.36
2023-05-10T16:52:51.452Z,18.52
2023-05-10T16:55:18.071Z,18.32
2023-05-10T16:57:44.972Z,18.29
2023-05-10T17:00:12.364Z,18.52
2023-05-10T17:02:39.356Z,18.55
2023-05-10T17:05:06.118Z,18.34
2023-05-10T17:07:32.604Z,18.42
2023-05-10T17:09:59.415Z,18.46
2023-05-10T17:12:26.048Z,18.47
2023-05-10T17:14:52.601Z,18.56
2023-05-10T17:17:19.283Z,18.27
2023-05-10T17:19:45.863Z,18.14
2023-05-10T17:22:12.665Z,17.77
2023-05-10T17:24:39.108Z,17.82
2023-05-10T17:27:05.739Z,17.90
2023-05-10T17:29:32.580Z,18.03
2023-05-10T17:31:59.453Z,17.93
2023-05-10T17:34:26.060Z,17.88
2023-05-10T17:36:54.274Z,17.67
2023-05-10T17:39:21.357Z,17.60
2023-05-10T17:41:47.853Z,17.38
2023-05-10T17:44:14.390Z,17.41
2023-05-10T17:46:40.857Z,17.38
2023-05-10T17:49:07.491Z,17.21
2023-05-10T17:51:34.274Z,17.26
2023-05-10T17:54:00.760Z,17.29
2023-05-10T17:56:27.379Z,17.17
2023-05-10T17:58:54.273Z,16.81
2023-05-10T18:01:20.988Z,16.58
2023-05-10T18:03:49.319Z,16.69
2023-05-10T18:06:15.858Z,16.43
2023-05-10T18:08:42.388Z,16.58
2023-05-10T18:11:08.881Z,16.48
2023-05-10T18:13:35.350Z,16.32
2023-05-10T18:16:01.864Z,16.18
2023-05-10T18:18:28.451Z,16.19
2023-05-10T18:20:57.802Z,16.11
2023-05-10T18:23:24.693Z,16.34
2023-05-10T18:25:51.793Z,16.30
2023-05-10T18:28:18.542Z,15.98
2023-05-10T18:30:45.415Z,16.09
2023-05-10T18:33:12.124Z,16.02
2023-05-10T18:35:40.184Z,15.94
2023-05-10T18:38:06.982Z,15.93
2023-05-10T18:40:33.471Z,15.90
2023-05-10T18:43:00.017Z,15.73
2023-05-10T18:45:26.477Z,16.03
2023-05-10T18:47:53.029Z,16.04
2023-05-10T18:50:19.834Z,15.87
2023-05-10T18:52:46.716Z,15.69
2023-05-10T18:55:13.472Z,15.72
2023-05-10T18:57:42.766Z,15.71
2023-05-10T19:00:12.852Z,15.90
2023-05-10T19:02:39.895Z,15.87
2023-05-10T19:05:06.904Z,15.67
2023-05-10T19:07:33.688Z,15.40
2023-05-10T19:10:00.311Z,15.52
2023-05-10T19:12:26.850Z,15.41
2023-05-10T19:14:53.312Z,15.64
2023-05-10T19:17:19.766Z,15.77
2023-05-10T19:19:46.219Z,15.66
2023-05-10T19:22:12.686Z,15.68
2023-05-10T19:24:39.268Z,15.51
2023-05-10T19:27:05.745Z,15.55
2023-05-10T19:29:32.383Z,15.53
2023-05-10T19:31:59.090Z,15.57
2023-05-10T19:34:25.705Z,15.49
2023-05-10T19:36:52.274Z,15.47
2023-05-10T19:39:19.572Z,15.31
2023-05-10T19:41:47.662Z,15.38
2023-05-10T19:44:15.385Z,15.43
2023-05-10T19:46:42.211Z,15.39
2023-05-10T19:49:08.806Z,15.52
2023-05-10T19:51:35.359Z,15.45
2023-05-10T19:54:02.086Z,15.49
2023-05-10T19:56:29.668Z,15.48
2023-05-10T19:58:56.248Z,15.44
2023-05-10T20:01:22.752Z,15.34
2023-05-10T20:03:49.314Z,15.17
2023-05-10T20:06:15.932Z,15.22
2023-05-10T20:08:42.435Z,15.29
2023-05-10T20:11:09.050Z,15.33
2023-05-10T20:13:35.580Z,15.11
2023-05-10T20:16:02.529Z,15.22
2023-05-10T20:18:29.139Z,15.28
2023-05-10T20:20:56.163Z,15.47
2023-05-10T20:23:22.750Z,15.32
2023-05-10T20:25:49.470Z,15.14
2023-05-10T20:28:23.091Z,15.26
2023-05-10T20:30:53.943Z,15.27
2023-05-10T20:33:21.050Z,15.20
2023-05-10T20:35:47.545Z,15.17
2023-05-10T20:38:14.218Z,15.30
2023-05-10T20:40:40.825Z,15.22
2023-05-10T20:43:07.289Z,15.07
2023-05-10T20:45:33.901Z,15.14
2023-05-10T20:48:01.197Z,15.13
2023-05-10T20:50:27.896Z,14.92
2023-05-10T20:52:54.421Z,15.21
2023-05-10T20:55:20.976Z,15.25
2023-05-10T20:57:47.471Z,15.28
2023-05-10T21:00:14.459Z,14.94
2023-05-10T21:02:43.348Z,14.85
2023-05-10T21:05:10.129Z,14.72
2023-05-10T21:07:36.720Z,14.50
2023-05-10T21:10:03.280Z,14.40
2023-05-10T21:12:29.738Z,14.32
2023-05-10T21:14:56.209Z,14.35
2023-05-10T21:17:22.652Z,14.37
2023-05-10T21:19:49.095Z,14.57
2023-05-10T21:22:15.632Z,14.35
2023-05-10T21:24:42.128Z,14.21
2023-05-10T21:27:09.017Z,14.07
2023-05-10T21:29:35.530Z,14.11
2023-05-10T21:32:02.058Z,14.19
2023-05-10T21:34:28.967Z,14.34
2023-05-10T21:36:55.402Z,14.23
2023-05-10T21:39:21.861Z,14.23
2023-05-10T21:41:48.341Z,13.91
2023-05-10T21:44:14.844Z,14.01
2023-05-10T21:46:41.301Z,14.03
2023-05-10T21:49:08.224Z,13.99
2023-05-10T21:51:34.689Z,13.98
2023-05-10T21:54:01.586Z,14.05
2023-05-10T21:56:28.070Z,14.14
2023-05-10T21:58:54.766Z,14.04
2023-05-10T22:01:21.277Z,14.19
2023-05-10T22:03:47.793Z,14.18
2023-05-10T22:06:14.285Z,14.15
2023-05-10T22:08:40.854Z,14.00
2023-05-10T22:11:07.286Z,13.99
2023-05-10T22:13:33.758Z,14.11
2023-05-10T22:16:00.591Z,14.19
2023-05-10T22:18:27.170Z,14.26
2023-05-10T22:20:53.681Z,14.22
2023-05-10T22:23:20.273Z,14.11
2023-05-10T22:25:46.759Z,14.15
2023-05-10T22:28:13.206Z,14.19
2023-05-10T22:30:41.270Z,14.10
2023-05-10T22:33:07.724Z,14.06
2023-05-10T22:35:34.226Z,14.06
2023-05-10T22:38:00.742Z,14.12
2023-05-10T22:40:27.406Z,13.99
2023-05-10T22:42:53.856Z,13.86
2023-05-10T22:45:20.519Z,13.92
2023-05-10T22:47:47.269Z,13.88
2023-05-10T22:50:14.280Z,13.77
2023-05-10T22:52:40.800Z,13.67
2023-05-10T22:55:07.486Z,13.54
2023-05-10T22:57:34.246Z,13.52
2023-05-10T23:00:00.904Z,13.48
2023-05-10T23:02:27.419Z,13.42
2023-05-10T23:04:53.888Z,13.48
2023-05-10T23:07:20.510Z,13.43
2023-05-10T23:09:47.014Z,13.36
2023-05-10T23:12:13.487Z,13.34
2023-05-10T23:14:41.469Z,13.25
2023-05-10T23:17:08.275Z,13.37
2023-05-10T23:19:34.726Z,13.33
2023-05-10T23:22:02.887Z,13.34
2023-05-10T23:24:29.834Z,13.32
2023-05-10T23:26:57.296Z,13.31
2023-05-10T23:29:27.087Z,13.39
2023-05-10T23:31:53.981Z,13.29
2023-05-10T23:34:20.465Z,13.21
2023-05-10T23:36:46.929Z,13.34
2023-05-10T23:39:13.537Z,13.40
2023-05-10T23:41:40.025Z,13.44
2023-05-10T23:44:06.591Z,13.40
2023-05-10T23:46:33.097Z,13.35
2023-05-10T23:48:59.604Z,13.32
2023-05-10T23:52:14.500Z,13.39
2023-05-10T23:55:02.331Z,13.63
2023-05-10T23:57:28.824Z,13.68
2023-05-10T23:59:55.441Z,13.80
